Lenoir, North Carolina
Current Conditions -  °F | °C
As of 3:15 PM on Thursday 23 Oct 2014 (Local Time) from KMRN Reporting Station
Clear Clear  
Wind Chill: 69°   Ceiling: Unl
Heat Index: 69°   Visibility: 10mi
Dew Point: 36°   Wind: 5mph
Humidity: 29%   Direction: 300°WNW
Pressure: 30.05"   Gusts: NA
Location:  35.92°N, 81.54°W
Report Text: KMRN 231915Z AUTO 30004KT 10SM CLR 21/02 A3005 RMK AO2 T02070022
Loading
Personal Weather Stations






























Interactive Weather Map
Tropical Storm Tracking
New forecast layout! Learn more

10-Day Weather Forecast

Advertisements
Track Severe Weather on mobile